Friday, January 19, 2018, 4:04 AM GMT
Back to Local

CWJB, Ste Foy CS , Que.

Location: , , Canada Lat: 47.3
Local Time: 4:04 AM GMT ( 4:04 GMT) Lon: -71.267
Time Zone: GMT Elev: 298 ft

Show me the last for .
Show Decoded

2018-01-19 03:00 METAR CWJB 190300Z AUTO 21003KT M08/ RMK AO1 SOG 19 T1076 =
2018-01-19 02:00 METAR CWJB 190200Z AUTO 22004KT M07/ RMK AO1 SOG 19 T1071 =
2018-01-19 01:00 METAR CWJB 190100Z AUTO 22004KT M06/ RMK AO1 SOG 20 T1056 =
2018-01-19 00:00 METAR CWJB 190000Z AUTO 22006KT M05/ RMK AO1 SOG 20 T1050 =
2018-01-18 23:00 METAR CWJB 182300Z AUTO 22005KT M05/ RMK AO1 SOG 20 T1046 =
2018-01-18 22:00 METAR CWJB 182200Z AUTO 23006KT M05/ RMK AO1 SOG 20 T1045 =
2018-01-18 21:00 METAR CWJB 182100Z AUTO 22005KT M05/ RMK AO1 SOG 20 T1046 =
2018-01-18 20:00 METAR CWJB 182000Z AUTO 23008G16KT M04/ RMK AO1 SOG 20 T1044 =
2018-01-18 19:00 METAR CWJB 181900Z AUTO 22007KT M04/ RMK AO1 SOG 20 T1044 =
2018-01-18 18:00 METAR CWJB 181800Z AUTO 22008G15KT M05/ RMK AO1 SOG 20 T1047 50010 =
2018-01-18 17:00 METAR CWJB 181700Z AUTO 22008KT M05/ RMK AO1 SOG 20 T1050 50010 =
2018-01-18 16:00 METAR CWJB 181600Z AUTO 22010G17KT M05/ RMK AO1 0PAST HR SOG 20 M PK WND
                 22018/1544 P0004 T1053 50010 =
2018-01-18 15:00 METAR CWJB 181500Z AUTO 22011G18KT M06/ RMK AO1 SOG 21 PK WND 21018/1454 T1058 =
2018-01-18 14:00 METAR CWJB 181400Z AUTO 22009G18KT M06/ RMK AO1 SOG 21 PK WND 22018/1354 T1062 =
2018-01-18 13:00 METAR CWJB 181300Z AUTO 22009KT M07/ RMK AO1 SOG 22 T1065 =
2018-01-18 12:00 METAR CWJB 181200Z AUTO 22008KT M07/ RMK AO1 SOG 22 T1068 =
2018-01-18 11:00 METAR CWJB 181100Z AUTO 23009G16KT M07/ RMK AO1 SOG 22 PK WND 23017/1026 T1068 =
2018-01-18 10:00 METAR CWJB 181000Z AUTO 22009KT M07/ RMK AO1 SOG 22 PK WND 19017/0938 T1068 =
2018-01-18 09:00 METAR CWJB 180900Z AUTO 22009G16KT M07/ RMK AO1 SOG 23 T1067 =
2018-01-18 08:00 METAR CWJB 180800Z AUTO 22008KT M07/ RMK AO1 SOG 23 T1068 =
2018-01-18 07:00 METAR CWJB 180700Z AUTO 22008KT M07/ RMK AO1 SOG 23 T1072 =
2018-01-18 06:00 METAR CWJB 180600Z AUTO 22008KT M07/ RMK AO1 SOG 23 T1065 =
2018-01-18 05:00 METAR CWJB 180500Z AUTO 22007KT M08/ RMK AO1 SOG 23 T1077 =

Support USWX by starting your Amazon purchase here.